KCDH

Harrell Field Airport

Camden, Arkansas, USA
METAR KCDH 191935Z AUTO 00000KT 9SM 23/12 A3015 RMK AO2
Observed Flight Rules
Oct-19 @ 19:35 UTC (17 minutes ago)
Visibility
9 miles
Temperatures Readings
Current 23°C / 73°F
Dewpoint 12°C / 54°F
Humidity 50%
Altimeter 30.15" Hg
Pressure 1021 hPa
Elevation 35
METAR KCDH 191935Z AUTO 00000KT 9SM 23/12 A3015 RMK AO2
Observed Flight Rules
Oct-19 @ 19:35 UTC
(17 minutes ago)
Temperature Dewpoint
23°C / 73°F 12°C / 54°F
Humidity Altimeter Pressure
50% 30.15" Hg 1021 hPa